Time;durP1;ratioP1;P1;durP2;ratioP2;P2;SDS_P1;SDS_P2;PMS_P1;PMS_P2;Temp;Humidity;BMP_temperature;BMP_pressure;BME280_temperature;BME280_humidity;BME280_pressure;Samples;Min_cycle;Max_cycle;Signal;HPM_P1;HPM_P2
2024/02/11 00:02:19;;;;;;;;;;;;;;;-144.99;100.00;67352.69;5055945;28;19916;-81
2024/02/11 00:04:45;;;;;;;;;;;;;;;-144.99;100.00;67352.69;5056909;28;19967;-80
2024/02/11 00:07:11;;;;;;;;;;;;;;;-144.99;100.00;67352.69;5054679;28;20310;-81
2024/02/11 00:09:37;;;;;;;;;;;;;;;-144.99;100.00;67352.69;5057291;28;20363;-80
2024/02/11 00:12:02;;;;;;;;;;;;;;;-144.99;100.00;67352.69;5055728;28;19996;-81
2024/02/11 00:14:27;;;;;;;;;;;;;;;-144.99;100.00;67352.69;5056678;28;19912;-81
2024/02/11 00:16:57;;;;;;;;;;;;;;;-144.99;100.00;67352.69;5054356;28;20387;-81
2024/02/11 00:19:24;;;;;;;;;;;;;;;-144.99;100.00;67352.69;5056664;28;19959;-80
2024/02/11 00:21:49;;;;;;;;;;;;;;;-144.99;100.00;67352.69;5055924;28;19924;-80
2024/02/11 00:24:14;;;;;;;;;;;;;;;-144.99;100.00;67352.69;5055056;28;19995;-81
2024/02/11 00:26:41;;;;;;;;;;;;;;;-144.99;100.00;67352.69;5054149;28;19924;-81
2024/02/11 00:29:07;;;;;;;;;;;;;;;-144.99;100.00;67352.69;5055093;28;19943;-81
2024/02/11 00:31:32;;;;;;;;;;;;;;;-144.99;100.00;67352.69;5055383;28;20395;-81
2024/02/11 00:33:57;;;;;;;;;;;;;;;-144.99;100.00;67352.69;5055730;28;20379;-80
2024/02/11 00:36:22;;;;;;;;;;;;;;;-144.99;100.00;67352.69;5054677;28;19960;-81
2024/02/11 00:38:47;;;;;;;;;;;;;;;-144.99;100.00;67352.69;5056183;28;19913;-81
2024/02/11 00:41:12;;;;;;;;;;;;;;;-144.99;100.00;67352.69;5054731;28;19929;-81
2024/02/11 00:43:38;;;;;;;;;;;;;;;-144.99;100.00;67352.69;5055953;28;19920;-81
2024/02/11 00:46:08;;;;;;;;;;;;;;;-144.99;100.00;67352.69;5054869;28;19979;-80
2024/02/11 00:48:34;;;;;;;;;;;;;;;-144.99;100.00;67352.69;5056264;28;19913;-81
2024/02/11 00:50:59;;;;;;;;;;;;;;;-144.99;100.00;67352.69;5054163;28;20094;-80
2024/02/11 00:53:25;;;;;;;;;;;;;;;-144.99;100.00;67352.69;5054280;28;19913;-80
2024/02/11 00:55:51;;;;;;;;;;;;;;;-144.99;100.00;67352.69;5053673;28;20397;-80
2024/02/11 00:58:16;;;;;;;;;;;;;;;-144.99;100.00;67352.69;5053218;28;19913;-81
2024/02/11 01:00:44;;;;;;;;;;;;;;;-144.99;100.00;67352.69;5051197;28;20032;-81
2024/02/11 01:03:11;;;;;;;;;;;;;;;-144.99;100.00;67352.69;5039894;28;19913;-81
2024/02/11 01:05:36;;;;;;;;;;;;;;;-144.99;100.00;67352.69;5052313;28;19958;-80
2024/02/11 01:08:02;;;;;;;;;;;;;;;-144.99;100.00;67352.69;5055351;28;19995;-80
2024/02/11 01:10:31;;;;;;;;;;;;;;;-144.99;100.00;67352.69;5054559;28;19913;-81
2024/02/11 01:12:56;;;;;;;;;;;;;;;-144.99;100.00;67352.69;5053491;28;19920;-81
2024/02/11 01:15:26;;;;;;;;;;;;;;;-144.99;100.00;67352.69;5053854;28;19913;-81
2024/02/11 01:17:52;;;;;;;;;;;;;;;-144.99;100.00;67352.69;5054928;28;20375;-80
2024/02/11 01:20:17;;;;;;;;;;;;;;;-144.99;100.00;67352.69;5053692;28;19924;-80
2024/02/11 01:22:43;;;;;;;;;;;;;;;-144.99;100.00;67352.69;5053667;28;19984;-81
2024/02/11 01:25:10;;;;;;;;;;;;;;;-144.99;100.00;67352.69;5055165;28;19913;-81
2024/02/11 01:27:37;;;;;;;;;;;;;;;-144.99;100.00;67352.69;5056520;28;19916;-80
2024/02/11 01:30:03;;;;;;;;;;;;;;;-144.99;100.00;67352.69;5059005;28;19939;-81
2024/02/11 01:32:28;;;;;;;;;;;;;;;-144.99;100.00;67352.69;5057777;28;19913;-81
2024/02/11 01:34:54;;;;;;;;;;;;;;;-144.99;100.00;67352.69;5059182;28;19988;-81
2024/02/11 01:37:19;;;;;;;;;;;;;;;-144.99;100.00;67352.69;5057132;28;19971;-81
2024/02/11 01:39:44;;;;;;;;;;;;;;;-144.99;100.00;67352.69;5056685;28;20050;-80
2024/02/11 01:42:09;;;;;;;;;;;;;;;-144.99;100.00;67352.69;5056398;28;19921;-81
2024/02/11 01:44:34;;;;;;;;;;;;;;;-144.99;100.00;67352.69;5055783;28;19962;-81
2024/02/11 01:47:03;;;;;;;;;;;;;;;-144.99;100.00;67352.69;5052508;28;19913;-80
2024/02/11 01:49:29;;;;;;;;;;;;;;;-144.99;100.00;67352.69;5056357;28;19975;-81
2024/02/11 01:51:55;;;;;;;;;;;;;;;-144.99;100.00;67352.69;5055012;28;20027;-80
2024/02/11 01:54:21;;;;;;;;;;;;;;;-144.99;100.00;67352.69;5055735;28;19916;-81
2024/02/11 01:56:48;;;;;;;;;;;;;;;-144.99;100.00;67352.69;5054692;28;19913;-81
2024/02/11 01:59:13;;;;;;;;;;;;;;;-144.99;100.00;67352.69;5055697;28;19913;-81
2024/02/11 02:01:39;;;;;;;;;;;;;;;-144.99;100.00;67352.69;5056205;28;19928;-81
2024/02/11 02:04:04;;;;;;;;;;;;;;;-144.99;100.00;67352.69;5056325;28;19913;-81
2024/02/11 02:06:29;;;;;;;;;;;;;;;-144.99;100.00;67352.69;5053982;28;19919;-81
2024/02/11 02:08:57;;;;;;;;;;;;;;;-144.99;100.00;67352.69;5055865;28;19935;-81
2024/02/11 02:11:22;;;;;;;;;;;;;;;-144.99;100.00;67352.69;5054320;28;19912;-81
2024/02/11 02:13:48;;;;;;;;;;;;;;;-144.99;100.00;67352.69;5055269;28;19990;-81
2024/02/11 02:16:13;;;;;;;;;;;;;;;-144.99;100.00;67352.69;5052561;28;19912;-81
2024/02/11 02:18:38;;;;;;;;;;;;;;;-144.99;100.00;67352.69;5054611;28;19920;-81
2024/02/11 02:21:04;;;;;;;;;;;;;;;-144.99;100.00;67352.69;5055491;28;19917;-81
2024/02/11 02:23:30;;;;;;;;;;;;;;;-144.99;100.00;67352.69;5055310;28;19913;-80
2024/02/11 02:25:56;;;;;;;;;;;;;;;-144.99;100.00;67352.69;5052417;28;19912;-81
2024/02/11 02:28:21;;;;;;;;;;;;;;;-144.99;100.00;67352.69;5055128;28;20276;-81
2024/02/11 02:30:46;;;;;;;;;;;;;;;-144.99;100.00;67352.69;5053289;28;19991;-81
2024/02/11 02:33:11;;;;;;;;;;;;;;;-144.99;100.00;67352.69;5055098;28;19917;-81
2024/02/11 02:35:37;;;;;;;;;;;;;;;-144.99;100.00;67352.69;5052545;28;19966;-81
2024/02/11 02:38:03;;;;;;;;;;;;;;;-144.99;100.00;67352.69;5048941;28;19913;-81
2024/02/11 02:40:28;;;;;;;;;;;;;;;-144.99;100.00;67352.69;5054460;28;19924;-81
2024/02/11 02:42:53;;;;;;;;;;;;;;;-144.99;100.00;67352.69;5055050;28;19920;-81
2024/02/11 02:45:18;;;;;;;;;;;;;;;-144.99;100.00;67352.69;5054460;28;19913;-80
2024/02/11 02:47:46;;;;;;;;;;;;;;;-144.99;100.00;67352.69;5054743;28;19924;-81
2024/02/11 02:50:12;;;;;;;;;;;;;;;-144.99;100.00;67352.69;5053062;28;19958;-81
2024/02/11 02:52:37;;;;;;;;;;;;;;;-144.99;100.00;67352.69;5054723;28;19978;-80
2024/02/11 02:55:06;;;;;;;;;;;;;;;-144.99;100.00;67352.69;5054709;28;19991;-80
2024/02/11 02:57:31;;;;;;;;;;;;;;;-144.99;100.00;67352.69;5056305;28;19920;-81
2024/02/11 02:59:56;;;;;;;;;;;;;;;-144.99;100.00;67352.69;5058256;28;19912;-81
2024/02/11 03:02:21;;;;;;;;;;;;;;;-144.99;100.00;67352.69;5057050;28;19920;-80
2024/02/11 03:04:47;;;;;;;;;;;;;;;-144.99;100.00;67352.69;5056584;28;19960;-80
2024/02/11 03:07:12;;;;;;;;;;;;;;;-144.99;100.00;67352.69;5055982;28;19912;-81
2024/02/11 03:09:37;;;;;;;;;;;;;;;-144.99;100.00;67352.69;5056395;28;19935;-81
2024/02/11 03:12:02;;;;;;;;;;;;;;;-144.99;100.00;67352.69;5056240;28;19948;-80
2024/02/11 03:14:30;;;;;;;;;;;;;;;-144.99;100.00;67352.69;5057576;28;19935;-81
2024/02/11 03:16:56;;;;;;;;;;;;;;;-144.99;100.00;67352.69;5057024;28;19935;-81
2024/02/11 03:19:21;;;;;;;;;;;;;;;-144.99;100.00;67352.69;5056207;28;20378;-80
2024/02/11 03:21:49;;;;;;;;;;;;;;;-144.99;100.00;67352.69;5050195;28;20300;-81
2024/02/11 03:24:14;;;;;;;;;;;;;;;-144.99;100.00;67352.69;5054363;28;19916;-81
2024/02/11 03:26:40;;;;;;;;;;;;;;;-144.99;100.00;67352.69;5052295;28;20284;-80
2024/02/11 03:29:05;;;;;;;;;;;;;;;-144.99;100.00;67352.69;5054126;28;19916;-80
2024/02/11 03:31:31;;;;;;;;;;;;;;;-144.99;100.00;67352.69;5056317;28;20000;-80
2024/02/11 03:33:56;;;;;;;;;;;;;;;-144.99;100.00;67352.69;5056648;28;19919;-80
2024/02/11 03:36:21;;;;;;;;;;;;;;;-144.99;100.00;67352.69;5055818;28;19917;-80
2024/02/11 03:38:46;;;;;;;;;;;;;;;-144.99;100.00;67352.69;5055007;28;20272;-80
2024/02/11 03:41:16;;;;;;;;;;;;;;;-144.99;100.00;67352.69;5053789;28;19917;-80
2024/02/11 03:43:41;;;;;;;;;;;;;;;-144.99;100.00;67352.69;5054395;28;19913;-80
2024/02/11 03:46:07;;;;;;;;;;;;;;;-144.99;100.00;67352.69;5054608;28;19913;-80
2024/02/11 03:48:32;;;;;;;;;;;;;;;-144.99;100.00;67352.69;5054219;28;19913;-80
2024/02/11 03:51:00;;;;;;;;;;;;;;;-144.99;100.00;67352.69;5054903;28;19944;-80
2024/02/11 03:53:25;;;;;;;;;;;;;;;-144.99;100.00;67352.69;5050829;28;19913;-80
2024/02/11 03:55:51;;;;;;;;;;;;;;;-144.99;100.00;67352.69;5050052;28;19919;-80
2024/02/11 03:58:16;;;;;;;;;;;;;;;-144.99;100.00;67352.69;5054769;28;19919;-80
2024/02/11 04:00:44;;;;;;;;;;;;;;;-144.99;100.00;67352.69;5053197;28;19923;-80
2024/02/11 04:03:11;;;;;;;;;;;;;;;-144.99;100.00;67352.69;5053591;28;19919;-80
2024/02/11 04:05:38;;;;;;;;;;;;;;;-144.99;100.00;67352.69;5052572;28;20294;-80
2024/02/11 04:08:08;;;;;;;;;;;;;;;-144.99;100.00;67352.69;5054798;28;19967;-80
2024/02/11 04:10:36;;;;;;;;;;;;;;;-144.99;100.00;67352.69;5054555;28;19919;-80
2024/02/11 04:13:02;;;;;;;;;;;;;;;-144.99;100.00;67352.69;5053465;28;20276;-80
2024/02/11 04:15:27;;;;;;;;;;;;;;;-144.99;100.00;67352.69;5053770;28;20294;-80
2024/02/11 04:17:53;;;;;;;;;;;;;;;-144.99;100.00;67352.69;5049187;28;19912;-80
2024/02/11 04:20:24;;;;;;;;;;;;;;;-144.99;100.00;67352.69;5051222;28;20517;-80
2024/02/11 04:22:59;;;;;;;;;;;;;;;-144.99;100.00;67352.69;5044963;28;19971;-80
2024/02/11 04:25:26;;;;;;;;;;;;;;;-144.99;100.00;67352.69;5053359;28;19920;-80
2024/02/11 04:27:51;;;;;;;;;;;;;;;-144.99;100.00;67352.69;5054437;28;19913;-80
2024/02/11 04:30:19;;;;;;;;;;;;;;;-144.99;100.00;67352.69;5053993;28;20288;-81
2024/02/11 04:32:45;;;;;;;;;;;;;;;-144.99;100.00;67352.69;5052872;28;19919;-80
2024/02/11 04:35:14;;;;;;;;;;;;;;;-144.99;100.00;67352.69;5053120;28;19916;-80
2024/02/11 04:37:46;;;;;;;;;;;;;;;-144.99;100.00;67352.69;5054100;28;20421;-80
2024/02/11 04:40:12;;;;;;;;;;;;;;;-144.99;100.00;67352.69;5052662;28;19913;-80
2024/02/11 04:42:41;;;;;;;;;;;;;;;-144.99;100.00;67352.69;5053934;28;19920;-80
2024/02/11 04:45:07;;;;;;;;;;;;;;;-144.99;100.00;67352.69;5054101;28;20383;-80
2024/02/11 04:47:35;;;;;;;;;;;;;;;-144.99;100.00;67352.69;5053124;28;19913;-80
2024/02/11 04:50:01;;;;;;;;;;;;;;;-144.99;100.00;67352.69;5054163;28;19923;-80
2024/02/11 04:52:27;;;;;;;;;;;;;;;-144.99;100.00;67352.69;5052796;28;20011;-80
2024/02/11 04:54:52;;;;;;;;;;;;;;;-144.99;100.00;67352.69;5058336;28;19920;-81
2024/02/11 04:57:17;;;;;;;;;;;;;;;-144.99;100.00;67352.69;5057239;28;19913;-81
2024/02/11 04:59:42;;;;;;;;;;;;;;;-144.99;100.00;67352.69;5058273;28;20414;-81
2024/02/11 05:02:08;;;;;;;;;;;;;;;-144.99;100.00;67352.69;5058539;28;19916;-81
2024/02/11 05:04:33;;;;;;;;;;;;;;;-144.99;100.00;67352.69;5058259;28;20310;-81
2024/02/11 05:06:58;;;;;;;;;;;;;;;-144.99;100.00;67352.69;5056138;28;19919;-81
2024/02/11 05:09:26;;;;;;;;;;;;;;;-144.99;100.00;67352.69;5058369;28;19913;-81
2024/02/11 05:11:54;;;;;;;;;;;;;;;-144.99;100.00;67352.69;5058549;28;19948;-80
2024/02/11 05:14:19;;;;;;;;;;;;;;;-144.99;100.00;67352.69;5058028;28;19920;-81
2024/02/11 05:16:45;;;;;;;;;;;;;;;-144.99;100.00;67352.69;5056613;28;19913;-80
2024/02/11 05:19:14;;;;;;;;;;;;;;;-144.99;100.00;67352.69;5057857;28;19917;-81
2024/02/11 05:21:42;;;;;;;;;;;;;;;-144.99;100.00;67352.69;5057039;28;19916;-81
2024/02/11 05:24:07;;;;;;;;;;;;;;;-144.99;100.00;67352.69;5057195;28;19966;-81
2024/02/11 05:26:32;;;;;;;;;;;;;;;-144.99;100.00;67352.69;5054676;28;19916;-81
2024/02/11 05:29:01;;;;;;;;;;;;;;;-144.99;100.00;67352.69;5056583;28;20015;-81
2024/02/11 05:31:28;;;;;;;;;;;;;;;-144.99;100.00;67352.69;5055534;28;20451;-81
2024/02/11 05:33:55;;;;;;;;;;;;;;;-144.99;100.00;67352.69;5055632;28;19913;-81
2024/02/11 05:36:20;;;;;;;;;;;;;;;-144.99;100.00;67352.69;5054446;28;20030;-81
2024/02/11 05:38:47;;;;;;;;;;;;;;;-144.99;100.00;67352.69;5055473;28;19913;-81
2024/02/11 05:41:12;;;;;;;;;;;;;;;-144.99;100.00;67352.69;5056131;28;19924;-81
2024/02/11 05:43:38;;;;;;;;;;;;;;;-144.99;100.00;67352.69;5054582;28;20152;-81
2024/02/11 05:46:03;;;;;;;;;;;;;;;-144.99;100.00;67352.69;5053832;28;19976;-80
2024/02/11 05:48:29;;;;;;;;;;;;;;;-144.99;100.00;67352.69;5054793;28;20379;-81
2024/02/11 05:50:54;;;;;;;;;;;;;;;-144.99;100.00;67352.69;5055495;28;19959;-81
2024/02/11 05:53:19;;;;;;;;;;;;;;;-144.99;100.00;67352.69;5054245;28;19974;-81
2024/02/11 05:55:44;;;;;;;;;;;;;;;-144.99;100.00;67352.69;5055376;28;19912;-81
2024/02/11 05:58:10;;;;;;;;;;;;;;;-144.99;100.00;67352.69;5053988;28;19917;-81
2024/02/11 06:00:36;;;;;;;;;;;;;;;-144.99;100.00;67352.69;5053836;28;19917;-81
2024/02/11 06:03:01;;;;;;;;;;;;;;;-144.99;100.00;67352.69;5053895;28;19913;-80
2024/02/11 06:05:26;;;;;;;;;;;;;;;-144.99;100.00;67352.69;5054211;28;19917;-80
2024/02/11 06:07:55;;;;;;;;;;;;;;;-144.99;100.00;67352.69;5055514;28;19944;-80
2024/02/11 06:10:22;;;;;;;;;;;;;;;-144.99;100.00;67352.69;5054828;28;20005;-81
2024/02/11 06:12:48;;;;;;;;;;;;;;;-144.99;100.00;67352.69;5053253;28;19913;-81
2024/02/11 06:15:14;;;;;;;;;;;;;;;-144.99;100.00;67352.69;5052301;28;19913;-81
2024/02/11 06:17:40;;;;;;;;;;;;;;;-144.99;100.00;67352.69;5053636;28;20286;-81
2024/02/11 06:20:09;;;;;;;;;;;;;;;-144.99;100.00;67352.69;5054174;28;20360;-80
2024/02/11 06:22:35;;;;;;;;;;;;;;;-144.99;100.00;67352.69;5054443;28;19916;-81
2024/02/11 06:25:00;;;;;;;;;;;;;;;-144.99;100.00;67352.69;5054637;28;20402;-81
2024/02/11 06:27:26;;;;;;;;;;;;;;;-144.99;100.00;67352.69;5053297;28;19917;-81
2024/02/11 06:29:51;;;;;;;;;;;;;;;-144.99;100.00;67352.69;5052687;28;19924;-81
2024/02/11 06:32:16;;;;;;;;;;;;;;;-144.99;100.00;67352.69;5051397;28;19916;-80
2024/02/11 06:34:42;;;;;;;;;;;;;;;-144.99;100.00;67352.69;5050660;28;19970;-80
2024/02/11 06:37:09;;;;;;;;;;;;;;;-144.99;100.00;67352.69;5050350;28;19936;-80
2024/02/11 06:39:36;;;;;;;;;;;;;;;-144.99;100.00;67352.69;5051086;28;19913;-81
2024/02/11 06:42:02;;;;;;;;;;;;;;;-144.99;100.00;67352.69;5050541;28;19917;-80
2024/02/11 06:44:28;;;;;;;;;;;;;;;-144.99;100.00;67352.69;5051796;28;20015;-81
2024/02/11 06:46:57;;;;;;;;;;;;;;;-144.99;100.00;67352.69;5050534;28;20054;-81
2024/02/11 06:49:23;;;;;;;;;;;;;;;-144.99;100.00;67352.69;5048074;28;19956;-83
2024/02/11 06:51:49;;;;;;;;;;;;;;;-144.99;100.00;67352.69;5046566;28;20008;-82
2024/02/11 06:54:14;;;;;;;;;;;;;;;-144.99;100.00;67352.69;5049357;28;19935;-80
2024/02/11 06:56:39;;;;;;;;;;;;;;;-144.99;100.00;67352.69;5050907;28;20288;-80
2024/02/11 06:59:04;;;;;;;;;;;;;;;-144.99;100.00;67352.69;5050584;28;19919;-80
2024/02/11 07:01:30;;;;;;;;;;;;;;;-144.99;100.00;67352.69;5050222;28;20391;-80
2024/02/11 07:03:55;;;;;;;;;;;;;;;-144.99;100.00;67352.69;5051493;28;19912;-80
2024/02/11 07:06:20;;;;;;;;;;;;;;;-144.99;100.00;67352.69;5048309;28;19959;-80
2024/02/11 07:08:45;;;;;;;;;;;;;;;-144.99;100.00;67352.69;5048939;28;19952;-80
2024/02/11 07:11:11;;;;;;;;;;;;;;;-144.99;100.00;67352.69;5051399;28;19982;-79
2024/02/11 07:13:39;;;;;;;;;;;;;;;-144.99;100.00;67352.69;5048513;28;19912;-80
2024/02/11 07:16:07;;;;;;;;;;;;;;;-144.99;100.00;67352.69;5051009;28;19959;-79
2024/02/11 07:18:33;;;;;;;;;;;;;;;-144.99;100.00;67352.69;5050384;28;20407;-80
2024/02/11 07:20:59;;;;;;;;;;;;;;;-144.99;100.00;67352.69;5050185;28;19943;-80
2024/02/11 07:23:24;;;;;;;;;;;;;;;-144.99;100.00;67352.69;5051856;28;20459;-79
2024/02/11 07:25:49;;;;;;;;;;;;;;;-144.99;100.00;67352.69;5049415;28;20097;-80
2024/02/11 07:28:15;;;;;;;;;;;;;;;-144.99;100.00;67352.69;5051533;28;19920;-79
2024/02/11 07:30:42;;;;;;;;;;;;;;;-144.99;100.00;67352.69;5050037;28;20019;-79
2024/02/11 07:33:07;;;;;;;;;;;;;;;-144.99;100.00;67352.69;5045778;28;19921;-80
2024/02/11 07:35:33;;;;;;;;;;;;;;;-144.99;100.00;67352.69;5049068;28;19917;-80
2024/02/11 07:37:58;;;;;;;;;;;;;;;-144.99;100.00;67352.69;5050938;28;20319;-80
2024/02/11 07:40:24;;;;;;;;;;;;;;;-144.99;100.00;67352.69;5050840;28;19913;-79
2024/02/11 07:42:50;;;;;;;;;;;;;;;-144.99;100.00;67352.69;5047487;28;19979;-79
2024/02/11 07:45:15;;;;;;;;;;;;;;;-144.99;100.00;67352.69;5053027;28;19913;-79
2024/02/11 07:47:45;;;;;;;;;;;;;;;-144.99;100.00;67352.69;5054978;28;19917;-79
2024/02/11 07:50:14;;;;;;;;;;;;;;;-144.99;100.00;67352.69;5054807;28;19917;-80
2024/02/11 07:52:39;;;;;;;;;;;;;;;-144.99;100.00;67352.69;5054812;28;19912;-80
2024/02/11 07:55:06;;;;;;;;;;;;;;;-144.99;100.00;67352.69;5055026;28;20363;-80
2024/02/11 07:57:31;;;;;;;;;;;;;;;-144.99;100.00;67352.69;5054081;28;19912;-81
2024/02/11 07:59:58;;;;;;;;;;;;;;;-144.99;100.00;67352.69;5053216;28;19963;-79
2024/02/11 08:02:24;;;;;;;;;;;;;;;-144.99;100.00;67352.69;5054542;28;19979;-79
2024/02/11 08:04:49;;;;;;;;;;;;;;;-144.99;100.00;67352.69;5055197;28;19913;-80
2024/02/11 08:07:14;;;;;;;;;;;;;;;-144.99;100.00;67352.69;5052627;28;19920;-80
2024/02/11 08:09:40;;;;;;;;;;;;;;;-144.99;100.00;67352.69;5054837;28;19916;-80
2024/02/11 08:12:06;;;;;;;;;;;;;;;-144.99;100.00;67352.69;5054878;28;20347;-80
2024/02/11 08:14:32;;;;;;;;;;;;;;;-144.99;100.00;67352.69;5054964;28;19966;-80
2024/02/11 08:16:57;;;;;;;;;;;;;;;-144.99;100.00;67352.69;5054666;28;20017;-80
2024/02/11 08:19:22;;;;;;;;;;;;;;;-144.99;100.00;67352.69;5059798;28;19913;-81
2024/02/11 08:21:48;;;;;;;;;;;;;;;-144.99;100.00;67352.69;5059965;28;19916;-81
2024/02/11 08:24:13;;;;;;;;;;;;;;;-144.99;100.00;67352.69;5058640;28;19913;-81
2024/02/11 08:26:38;;;;;;;;;;;;;;;-144.99;100.00;67352.69;5057758;28;19912;-81
2024/02/11 08:29:04;;;;;;;;;;;;;;;-144.99;100.00;67352.69;5060191;28;19999;-81
2024/02/11 08:31:30;;;;;;;;;;;;;;;-144.99;100.00;67352.69;5058447;28;20401;-81
2024/02/11 08:33:56;;;;;;;;;;;;;;;-144.99;100.00;67352.69;5057910;28;19920;-81
2024/02/11 08:36:21;;;;;;;;;;;;;;;-144.99;100.00;67352.69;5058507;28;19916;-81
2024/02/11 08:38:47;;;;;;;;;;;;;;;-144.99;100.00;67352.69;5057601;28;19912;-81
2024/02/11 08:41:12;;;;;;;;;;;;;;;-144.99;100.00;67352.69;5058771;28;19917;-81
2024/02/11 08:43:37;;;;;;;;;;;;;;;-144.99;100.00;67352.69;5056070;28;19927;-80
2024/02/11 08:46:04;;;;;;;;;;;;;;;-144.99;100.00;67352.69;5055415;28;19916;-80
2024/02/11 08:48:31;;;;;;;;;;;;;;;-144.99;100.00;67352.69;5058212;28;20300;-81
2024/02/11 08:50:57;;;;;;;;;;;;;;;-144.99;100.00;67352.69;5058159;28;19959;-81
2024/02/11 08:53:22;;;;;;;;;;;;;;;-144.99;100.00;67352.69;5055648;28;19912;-81
2024/02/11 08:55:52;;;;;;;;;;;;;;;-144.99;100.00;67352.69;5055839;28;19917;-81
2024/02/11 08:58:18;;;;;;;;;;;;;;;-144.99;100.00;67352.69;5058202;28;20387;-80
2024/02/11 09:00:43;;;;;;;;;;;;;;;-144.99;100.00;67352.69;5056403;28;19940;-80
2024/02/11 09:03:08;;;;;;;;;;;;;;;-144.99;100.00;67352.69;5057768;28;20371;-81
2024/02/11 09:05:34;;;;;;;;;;;;;;;-144.99;100.00;67352.69;5054997;28;19924;-81
2024/02/11 09:07:59;;;;;;;;;;;;;;;-144.99;100.00;67352.69;5056545;28;20130;-80
2024/02/11 09:10:24;;;;;;;;;;;;;;;-144.99;100.00;67352.69;5057324;28;20372;-80
2024/02/11 09:12:50;;;;;;;;;;;;;;;-144.99;100.00;67352.69;5056488;28;19967;-80
2024/02/11 09:15:15;;;;;;;;;;;;;;;-144.99;100.00;67352.69;5055709;28;19971;-80
2024/02/11 09:17:43;;;;;;;;;;;;;;;-144.99;100.00;67352.69;5056984;28;19939;-80
2024/02/11 09:20:09;;;;;;;;;;;;;;;-144.99;100.00;67352.69;5056988;28;19920;-80
2024/02/11 09:22:34;;;;;;;;;;;;;;;-144.99;100.00;67352.69;5053746;28;19917;-79
2024/02/11 09:25:00;;;;;;;;;;;;;;;-144.99;100.00;67352.69;5052605;28;20105;-80
2024/02/11 09:27:25;;;;;;;;;;;;;;;-144.99;100.00;67352.69;5052789;28;20303;-79
2024/02/11 09:29:51;;;;;;;;;;;;;;;-144.99;100.00;67352.69;5053410;28;20054;-80
2024/02/11 09:32:16;;;;;;;;;;;;;;;-144.99;100.00;67352.69;5053845;28;20194;-80
2024/02/11 09:34:42;;;;;;;;;;;;;;;-144.99;100.00;67352.69;5054037;28;19912;-79
2024/02/11 09:37:08;;;;;;;;;;;;;;;-144.99;100.00;67352.69;5051559;28;19936;-80
2024/02/11 09:39:33;;;;;;;;;;;;;;;-144.99;100.00;67352.69;5054364;28;19999;-80
2024/02/11 09:41:58;;;;;;;;;;;;;;;-144.99;100.00;67352.69;5054789;28;19923;-80
2024/02/11 09:44:26;;;;;;;;;;;;;;;-144.99;100.00;67352.69;5053559;28;19912;-80
2024/02/11 09:46:53;;;;;;;;;;;;;;;-144.99;100.00;67352.69;5052585;28;19951;-81
2024/02/11 09:49:20;;;;;;;;;;;;;;;-144.99;100.00;67352.69;5051610;28;19917;-80
2024/02/11 09:51:48;;;;;;;;;;;;;;;-144.99;100.00;67352.69;5052090;28;19963;-79
2024/02/11 09:54:15;;;;;;;;;;;;;;;-144.99;100.00;67352.69;5053855;28;19920;-80
2024/02/11 09:56:42;;;;;;;;;;;;;;;-144.99;100.00;67352.69;5051558;28;19913;-80
2024/02/11 09:59:09;;;;;;;;;;;;;;;-144.99;100.00;67352.69;5054086;28;19917;-80
2024/02/11 10:01:35;;;;;;;;;;;;;;;-144.99;100.00;67352.69;5052433;28;19917;-81
2024/02/11 10:04:04;;;;;;;;;;;;;;;-144.99;100.00;67352.69;5052027;28;19917;-80
2024/02/11 10:06:41;;;;;;;;;;;;;;;-144.99;100.00;67352.69;5052096;28;19912;-81
2024/02/11 10:09:12;;;;;;;;;;;;;;;-144.99;100.00;67352.69;5054614;28;20272;-82
2024/02/11 10:11:39;;;;;;;;;;;;;;;-144.99;100.00;67352.69;5052968;28;19913;-81
2024/02/11 10:14:09;;;;;;;;;;;;;;;-144.99;100.00;67352.69;5053076;28;20410;-81
2024/02/11 10:16:35;;;;;;;;;;;;;;;-144.99;100.00;67352.69;5052295;28;19916;-80
2024/02/11 10:19:00;;;;;;;;;;;;;;;-144.99;100.00;67352.69;5054314;28;20445;-81
2024/02/11 10:21:26;;;;;;;;;;;;;;;-144.99;100.00;67352.69;5053206;28;19916;-82
2024/02/11 10:23:51;;;;;;;;;;;;;;;-144.99;100.00;67352.69;5053083;28;20302;-82
2024/02/11 10:26:17;;;;;;;;;;;;;;;-144.99;100.00;67352.69;5052481;28;19919;-82
2024/02/11 10:28:42;;;;;;;;;;;;;;;-144.99;100.00;67352.69;5052873;28;19964;-82
2024/02/11 10:31:07;;;;;;;;;;;;;;;-144.99;100.00;67352.69;5052216;28;20050;-81
2024/02/11 10:33:33;;;;;;;;;;;;;;;-144.99;100.00;67352.69;5051762;28;20007;-81
2024/02/11 10:36:00;;;;;;;;;;;;;;;-144.99;100.00;67352.69;5051252;28;19919;-81
2024/02/11 10:38:27;;;;;;;;;;;;;;;-144.99;100.00;67352.69;5053917;28;19919;-81
2024/02/11 10:40:54;;;;;;;;;;;;;;;-144.99;100.00;67352.69;5052701;28;20398;-80
2024/02/11 10:43:24;;;;;;;;;;;;;;;-144.99;100.00;67352.69;5054099;28;19995;-81
2024/02/11 10:45:50;;;;;;;;;;;;;;;-144.99;100.00;67352.69;5051550;28;19913;-81
2024/02/11 10:48:17;;;;;;;;;;;;;;;-144.99;100.00;67352.69;5051570;28;20298;-81
2024/02/11 10:50:42;;;;;;;;;;;;;;;-144.99;100.00;67352.69;5052579;28;20383;-81
2024/02/11 10:53:09;;;;;;;;;;;;;;;-144.99;100.00;67352.69;5052605;28;19920;-80
2024/02/11 10:55:40;;;;;;;;;;;;;;;-144.99;100.00;67352.69;5051289;28;19913;-80
2024/02/11 10:58:08;;;;;;;;;;;;;;;-144.99;100.00;67352.69;5051779;28;19948;-81
2024/02/11 11:00:34;;;;;;;;;;;;;;;-144.99;100.00;67352.69;5051264;28;19920;-80
2024/02/11 11:03:01;;;;;;;;;;;;;;;-144.99;100.00;67352.69;5051591;28;19966;-81
2024/02/11 11:05:29;;;;;;;;;;;;;;;-144.99;100.00;67352.69;5052397;28;19920;-81
2024/02/11 11:07:56;;;;;;;;;;;;;;;-144.99;100.00;67352.69;5051665;28;19920;-81
2024/02/11 11:10:21;;;;;;;;;;;;;;;-144.99;100.00;67352.69;5051505;28;19923;-81
2024/02/11 11:12:53;;;;;;;;;;;;;;;-144.99;100.00;67352.69;5052863;28;20003;-81
2024/02/11 11:15:26;;;;;;;;;;;;;;;-144.99;100.00;67352.69;5050688;28;19920;-80
2024/02/11 11:17:52;;;;;;;;;;;;;;;-144.99;100.00;67352.69;5056059;28;19917;-81
2024/02/11 11:20:18;;;;;;;;;;;;;;;-144.99;100.00;67352.69;5054983;28;20421;-81
2024/02/11 11:22:48;;;;;;;;;;;;;;;-144.99;100.00;67352.69;5054688;28;19920;-81
2024/02/11 11:25:16;;;;;;;;;;;;;;;-144.99;100.00;67352.69;5055017;28;19913;-80
2024/02/11 11:27:41;;;;;;;;;;;;;;;-144.99;100.00;67352.69;5055720;28;19917;-81
2024/02/11 11:30:07;;;;;;;;;;;;;;;-144.99;100.00;67352.69;5051789;28;20016;-81
2024/02/11 11:32:33;;;;;;;;;;;;;;;-144.99;100.00;67352.69;5056894;28;20414;-81
2024/02/11 11:34:59;;;;;;;;;;;;;;;-144.99;100.00;67352.69;5057175;28;19917;-81
2024/02/11 11:37:24;;;;;;;;;;;;;;;-144.99;100.00;67352.69;5055296;28;19912;-81
2024/02/11 11:39:50;;;;;;;;;;;;;;;-144.99;100.00;67352.69;5054501;28;19948;-80
2024/02/11 11:42:17;;;;;;;;;;;;;;;-144.99;100.00;67352.69;5055894;28;19917;-80
2024/02/11 11:44:42;;;;;;;;;;;;;;;-144.99;100.00;67352.69;5055890;28;20410;-81
2024/02/11 11:47:07;;;;;;;;;;;;;;;-144.99;100.00;67352.69;5056251;28;19913;-81
2024/02/11 11:49:34;;;;;;;;;;;;;;;-144.99;100.00;67352.69;5057486;28;19919;-81
2024/02/11 11:52:00;;;;;;;;;;;;;;;-144.99;100.00;67352.69;5057331;28;19920;-81
2024/02/11 11:54:29;;;;;;;;;;;;;;;-144.99;100.00;67352.69;5056326;28;19948;-80
2024/02/11 11:56:55;;;;;;;;;;;;;;;-144.99;100.00;67352.69;5055278;28;20382;-81
2024/02/11 11:59:21;;;;;;;;;;;;;;;-144.99;100.00;67352.69;5056758;28;19960;-81
2024/02/11 12:01:46;;;;;;;;;;;;;;;-144.99;100.00;67352.69;5056907;28;19979;-81
2024/02/11 12:04:11;;;;;;;;;;;;;;;-144.99;100.00;67352.69;5056281;28;20350;-81
2024/02/11 12:06:38;;;;;;;;;;;;;;;-144.99;100.00;67352.69;5055159;28;19920;-80
2024/02/11 12:09:03;;;;;;;;;;;;;;;-144.99;100.00;67352.69;5057257;28;20011;-81
2024/02/11 12:11:28;;;;;;;;;;;;;;;-144.99;100.00;67352.69;5056835;28;19959;-80
2024/02/11 12:13:54;;;;;;;;;;;;;;;-144.99;100.00;67352.69;5054285;28;20383;-80